Архив погоды в Питляре

Метеограмма Питляр
Понедельник, 25 Мая
Время местн. Темп Ветер Видим Явления Облачность нижн/средн/верх Атм. давл. Влжн Точка росы ВНГО R Сост. почвы Tg s
Напр Скр Прв ур.ст ур.м изм
20:00 +9.4° С 3 - 50 км - ясно 767 769 +0.2 52% +0.1° более 2.5 км 0 - - -
17:00 - +10.5° С,С-З 6 12 - - - 767 768 +0.2 48% +0.1° - - - - -
14:00 +12.1° З 8 13 более 50 км - незначительная облачность 767 768 +0.8 47% +1° 1 км - - - -
11:00 - +10.5° З 8 12 менее 100 м - - 766 768 0 58% +2.5° - - - - -
08:00 +8.3° Ю-З 8 12 более 50 км - переменная облачность 766 768 0 64% +1.9° более 2.5 км 0 Влажная (без луж) +4° -
05:00 +6.6° З 8 11 более 50 км - облачно 766 768 +0.1 70% +1.5° более 2.5 км - - - -
02:00 +5.4° З 6 10 более 50 км - переменная облачность 766 768 -0.2 63% -1.1° 1 км - - - -
Воскресенье, 24 Мая
Время местн. Темп Ветер Видим Явления Облачность нижн/средн/верх Атм. давл. Влжн Точка росы ВНГО R Сост. почвы Tg s
Напр Скр Прв ур.ст ур.м изм
23:00 +5.8° З 8 10 50 км - переменная облачность 766 768 +0.2 63% -0.7° - - - - -
20:00 +6.9° З 7 11 более 50 км - облачно 766 768 +0.5 63% +0.4° 1 км 0 - - -
17:00 - +8.6° З 9 12 - - - 765 767 +0.8 56% +0.4° - - - - -
14:00 +8.6° С-З 4 - 50 км - облачно 765 767 +0.8 55% +0.2° 1 км - - - -
11:00 - +6.9° С-З 6 11 - - - 764 766 +1.1 68% +1.4° - - - - -
08:00 +6.8° З,С-З 2 10 более 50 км - облачно 763 765 +1.5 67% +1.2° 1 км 0 - - -
05:00 +5.8° З 7 11 более 50 км - облачно 762 763 +1.1 72% +1.1° более 2.5 км - - - -
02:00 +7.2° З,С-З 8 11 более 50 км - облачно 761 762 +1.7 70% +2.2° 1 км - - - -
Суббота, 23 Мая
Время местн. Темп Ветер Видим Явления Облачность нижн/средн/верх Атм. давл. Влжн Точка росы ВНГО R Сост. почвы Tg s
Напр Скр Прв ур.ст ур.м изм
23:00 +9.2° З,С-З 7 11 более 50 км - облачно 759 761 +1.8 77% +5.3° 1 км - - - -
20:00 +13.9° З 4 - более 50 км - облачно 757 759 +0.6 72% +8.9° 1 км 0 - - -
17:00 - +16° Ю-З 3 - - - - 757 758 +0.3 61% +8.4° - - - - -
14:00 +14.7° Ю-З 3 - более 50 км - облачно 756 758 +0.2 67% +8.6° 600 м - - - -
11:00 - +12.9° Ю,Ю-З 4 - - - - 756 758 +0.2 73% +8.1° - - - - -
08:00 +10.7° Ю 5 10 более 50 км - преимущественно облачно 756 757 +0.2 74% +6.3° 600 м 0.4 - - -
05:00 +10.1° Ю-В 4 - более 50 км небо без изменений {ливневые осадки} переменная облачность 756 757 +0.4 83% +7.3° 1 км - - - -
02:00 +10.9° В,Ю-В 3 - более 50 км - облачно 755 757 -0.7 86% +8.6° 600 м - - - -
Пятница, 22 Мая
Время местн. Темп Ветер Видим Явления Облачность нижн/средн/верх Атм. давл. Влжн Точка росы ВНГО R Сост. почвы Tg s
Напр Скр Прв ур.ст ур.м изм
23:00 +12.3° Ю,Ю-В 2 11 более 50 км - облачно 756 758 -0.2 70% +7° 600 м - - - -
20:00 +15.5° С,С-В 1 - 50 км - облачно 756 758 -0.8 69% +9.9° 600 м 11 - - -
17:00 - +13.9° Ю-В 6 11 - - - 757 759 +0.5 76% +9.8° - - - - -